Time;durP1;ratioP1;P1;durP2;ratioP2;P2;SDS_P1;SDS_P2;PMS_P1;PMS_P2;Temp;Humidity;BMP_temperature;BMP_pressure;BME280_temperature;BME280_humidity;BME280_pressure;Samples;Min_cycle;Max_cycle;Signal;HPM_P1;HPM_P2
2022/09/10 00:02:46;;;;;;;;;;;;;;;28.16;39.35;94292.13;5004706;28;7114;-61
2022/09/10 00:05:24;;;;;;;;;;;;;;;28.15;39.21;94296.16;5009115;28;8817;-60
2022/09/10 00:07:57;;;;;;;;;;;;;;;28.15;39.24;94292.63;4987466;28;7368;-60
2022/09/10 00:10:25;;;;;;;;;;;;;;;28.13;38.98;94293.16;5005061;28;7058;-60
2022/09/10 00:13:11;;;;;;;;;;;;;;;28.14;39.53;94291.88;4996054;28;9923;-60
2022/09/10 00:15:48;;;;;;;;;;;;;;;28.13;39.52;94295.94;4986397;28;7698;-60
2022/09/10 00:18:26;;;;;;;;;;;;;;;28.13;40.00;94289.66;4980226;28;7081;-60
2022/09/10 00:20:56;;;;;;;;;;;;;;;28.13;39.41;94295.19;4991451;28;9432;-60
2022/09/10 00:23:32;;;;;;;;;;;;;;;28.14;39.40;94291.16;4996130;28;6948;-60
2022/09/10 00:26:08;;;;;;;;;;;;;;;28.14;39.46;94291.16;4994273;28;7319;-60
2022/09/10 00:28:35;;;;;;;;;;;;;;;28.15;39.32;94287.09;4990944;28;9416;-60
2022/09/10 00:31:07;;;;;;;;;;;;;;;28.14;39.45;94285.63;5005761;28;6991;-60
2022/09/10 00:33:38;;;;;;;;;;;;;;;28.14;39.64;94291.16;4984530;28;9464;-60
2022/09/10 00:36:20;;;;;;;;;;;;;;;28.15;39.14;94295.41;5009780;28;7287;-60
2022/09/10 00:38:47;;;;;;;;;;;;;;;28.14;39.93;94282.84;4985432;28;7074;-60
2022/09/10 00:41:14;;;;;;;;;;;;;;;28.13;39.35;94281.34;4976281;28;6993;-60
2022/09/10 00:44:31;;;;;;;;;;;;;;;28.12;39.38;94288.19;4992877;28;8709;-60
2022/09/10 00:46:58;;;;;;;;;;;;;;;28.10;39.40;94285.91;4951002;28;7044;-60
2022/09/10 00:49:35;;;;;;;;;;;;;;;28.10;39.50;94287.97;4931691;28;7289;-60
2022/09/10 00:52:05;;;;;;;;;;;;;;;28.12;39.71;94288.19;4951219;28;8918;-60
2022/09/10 00:54:49;;;;;;;;;;;;;;;28.14;39.80;94291.16;4951775;28;7127;-60
2022/09/10 00:57:27;;;;;;;;;;;;;;;28.11;39.49;94281.13;4936886;28;7327;-60
2022/09/10 01:00:30;;;;;;;;;;;;;;;28.11;39.54;94284.66;4936070;28;7144;-60
2022/09/10 01:02:58;;;;;;;;;;;;;;;28.10;39.34;94274.84;4946764;28;7282;-60
2022/09/10 01:05:44;;;;;;;;;;;;;;;28.09;39.46;94278.91;4951925;28;7064;-60
2022/09/10 01:08:45;;;;;;;;;;;;;;;28.10;39.58;94274.13;4935415;28;7225;-60
2022/09/10 01:12:03;;;;;;;;;;;;;;;28.09;39.23;94278.16;4847052;29;9075;-60
2022/09/10 01:15:14;;;;;;;;;;;;;;;28.08;39.26;94277.41;4829241;29;6929;-60
2022/09/10 01:18:31;;;;;;;;;;;;;;;28.08;39.43;94271.13;4721212;30;7281;-60
2022/09/10 01:21:14;;;;;;;;;;;;;;;28.07;39.50;94275.19;4706079;30;7743;-60
2022/09/10 01:24:13;;;;;;;;;;;;;;;28.07;39.80;94270.41;4703822;30;7859;-60
2022/09/10 01:27:25;;;;;;;;;;;;;;;28.06;39.50;94263.38;4720328;30;8467;-60
2022/09/10 01:30:04;;;;;;;;;;;;;;;28.04;39.43;94270.69;4734624;30;7835;-60
2022/09/10 01:32:51;;;;;;;;;;;;;;;28.05;39.42;94264.66;4737308;30;9225;-61
2022/09/10 01:35:52;;;;;;;;;;;;;;;28.05;39.18;94266.69;4734553;30;8000;-60
2022/09/10 01:38:34;;;;;;;;;;;;;;;28.05;39.41;94266.69;4708793;30;9354;-60
2022/09/10 01:41:47;;;;;;;;;;;;;;;28.04;39.44;94259.66;4710241;30;7597;-60
2022/09/10 01:44:43;;;;;;;;;;;;;;;28.04;39.32;94259.66;4700532;30;7464;-60
2022/09/10 01:47:47;;;;;;;;;;;;;;;28.03;39.47;94264.44;4722699;30;7749;-60
2022/09/10 01:51:03;;;;;;;;;;;;;;;28.04;39.36;94262.41;4787762;29;7206;-60
2022/09/10 01:54:10;;;;;;;;;;;;;;;28.03;39.33;94255.41;4802226;29;7115;-60
2022/09/10 02:00:34;;;;;;;;;;;;;;;28.00;39.01;94242.63;4876161;29;6955;-60
2022/09/10 02:03:21;;;;;;;;;;;;;;;28.01;39.29;94241.38;4878127;29;7131;-60
2022/09/10 02:05:55;;;;;;;;;;;;;;;27.99;39.30;94238.38;4860937;29;7033;-60
2022/09/10 02:08:58;;;;;;;;;;;;;;;28.02;39.33;94234.56;4875527;29;7241;-60
2022/09/10 02:11:51;;;;;;;;;;;;;;;28.00;39.38;94246.16;4893208;29;9378;-61
2022/09/10 02:14:19;;;;;;;;;;;;;;;28.00;39.18;94242.63;4858936;29;7286;-61
2022/09/10 02:17:00;;;;;;;;;;;;;;;28.01;39.46;94247.66;4886741;29;6990;-60
2022/09/10 02:19:29;;;;;;;;;;;;;;;28.00;39.49;94254.44;4892623;29;9451;-61
2022/09/10 02:21:57;;;;;;;;;;;;;;;28.00;39.70;94248.91;4891232;29;6966;-60
2022/09/10 02:24:37;;;;;;;;;;;;;;;28.00;39.22;94253.69;4904056;29;9401;-60
2022/09/10 02:27:05;;;;;;;;;;;;;;;27.99;39.42;94252.22;4941658;28;7343;-60
2022/09/10 02:29:31;;;;;;;;;;;;;;;27.97;39.66;94255.50;4988387;28;6871;-60
2022/09/10 02:31:57;;;;;;;;;;;;;;;28.00;39.81;94253.69;4982453;28;7479;-61
2022/09/10 02:34:23;;;;;;;;;;;;;;;28.00;39.21;94259.97;4966902;28;7105;-61
2022/09/10 02:36:49;;;;;;;;;;;;;;;27.99;39.43;94258.47;4985924;28;7850;-60
2022/09/10 02:39:46;;;;;;;;;;;;;;;28.01;39.37;94260.72;4987142;28;7288;-60
2022/09/10 02:42:28;;;;;;;;;;;;;;;28.01;39.26;94260.72;4987247;28;7615;-60
2022/09/10 02:44:55;;;;;;;;;;;;;;;27.99;39.14;94264.00;4975140;28;7561;-61
2022/09/10 02:47:21;;;;;;;;;;;;;;;27.98;39.56;94265.28;5007793;28;8018;-60
2022/09/10 02:49:47;;;;;;;;;;;;;;;27.99;39.17;94266.75;4992626;28;8428;-60
2022/09/10 02:52:13;;;;;;;;;;;;;;;28.00;38.84;94270.28;5004578;28;7325;-61
2022/09/10 02:54:40;;;;;;;;;;;;;;;28.00;39.60;94267.50;4990618;28;7211;-61
2022/09/10 02:57:06;;;;;;;;;;;;;;;27.98;39.51;94261.78;4984614;28;7724;-61
2022/09/10 02:59:46;;;;;;;;;;;;;;;27.94;39.05;94256.53;4987455;28;7139;-60
2022/09/10 03:02:23;;;;;;;;;;;;;;;27.96;39.69;94265.03;4992733;28;6956;-60
2022/09/10 03:04:57;;;;;;;;;;;;;;;27.97;39.13;94265.78;5006970;28;8910;-60
2022/09/10 03:07:23;;;;;;;;;;;;;;;27.95;39.49;94260.78;4997518;28;7521;-61
2022/09/10 03:09:52;;;;;;;;;;;;;;;27.97;39.21;94260.28;5009559;28;7442;-60
2022/09/10 03:12:40;;;;;;;;;;;;;;;27.95;39.32;94257.28;4990991;28;8637;-60
2022/09/10 03:15:31;;;;;;;;;;;;;;;27.95;39.38;94246.22;4990901;28;9421;-61
2022/09/10 03:18:05;;;;;;;;;;;;;;;27.94;39.57;94244.72;5001988;28;7385;-60
2022/09/10 03:20:40;;;;;;;;;;;;;;;27.93;39.34;94251.53;5012526;28;9686;-61
2022/09/10 03:23:17;;;;;;;;;;;;;;;27.93;39.60;94252.28;5010769;28;7249;-60
2022/09/10 03:25:51;;;;;;;;;;;;;;;27.93;39.27;94260.56;4987122;28;7206;-60
2022/09/10 03:28:37;;;;;;;;;;;;;;;27.93;39.56;94251.53;4987829;28;7615;-60
2022/09/10 03:31:07;;;;;;;;;;;;;;;27.94;39.37;94251.00;4990838;28;7493;-60
2022/09/10 03:33:42;;;;;;;;;;;;;;;27.94;39.59;94251.00;4987032;28;9065;-60
2022/09/10 03:36:14;;;;;;;;;;;;;;;27.93;39.21;94254.28;5006439;28;7130;-60
2022/09/10 03:39:17;;;;;;;;;;;;;;;27.93;39.60;94254.28;4995509;28;7248;-60
2022/09/10 03:41:45;;;;;;;;;;;;;;;27.92;39.63;94248.03;4942343;28;7192;-61
2022/09/10 03:44:13;;;;;;;;;;;;;;;27.89;39.39;94243.56;4935269;28;7190;-60
2022/09/10 03:46:40;;;;;;;;;;;;;;;27.90;39.63;94245.06;4952929;28;7268;-61
2022/09/10 03:49:09;;;;;;;;;;;;;;;27.89;39.69;94237.28;4943342;28;8549;-60
2022/09/10 03:51:35;;;;;;;;;;;;;;;27.89;40.18;94253.84;4934002;28;7691;-61
2022/09/10 03:54:01;;;;;;;;;;;;;;;27.91;39.48;94248.53;4952004;28;7366;-60
2022/09/10 03:56:46;;;;;;;;;;;;;;;27.93;39.48;94249.50;4951770;28;7237;-61
2022/09/10 03:59:30;;;;;;;;;;;;;;;27.90;39.23;94245.06;4932192;28;7242;-60
2022/09/10 04:02:08;;;;;;;;;;;;;;;27.91;39.58;94248.53;4934374;28;8228;-60
2022/09/10 04:04:53;;;;;;;;;;;;;;;27.89;39.47;94240.03;4947465;28;7325;-60
2022/09/10 04:07:30;;;;;;;;;;;;;;;27.91;39.00;94243.00;4952429;28;7012;-60
2022/09/10 04:10:06;;;;;;;;;;;;;;;27.90;39.75;94256.09;4934944;28;7296;-61
2022/09/10 04:12:52;;;;;;;;;;;;;;;27.88;39.37;94247.59;4934874;28;9374;-61
2022/09/10 04:15:32;;;;;;;;;;;;;;;27.87;39.50;94250.88;4963107;28;8047;-61
2022/09/10 04:18:01;;;;;;;;;;;;;;;27.89;39.52;94254.59;5009827;28;7218;-61
2022/09/10 04:20:56;;;;;;;;;;;;;;;27.88;39.23;94246.84;5007702;28;9599;-60
2022/09/10 04:23:24;;;;;;;;;;;;;;;27.88;39.49;94252.38;4951659;28;7138;-60
2022/09/10 04:25:51;;;;;;;;;;;;;;;27.86;39.62;94249.41;4967783;28;7303;-60
2022/09/10 04:28:53;;;;;;;;;;;;;;;27.87;39.48;94248.13;4963552;28;9280;-60
2022/09/10 04:31:49;;;;;;;;;;;;;;;27.88;39.68;94246.84;4897847;29;7321;-61
2022/09/10 04:34:33;;;;;;;;;;;;;;;27.87;39.06;94248.13;4855456;29;9198;-61
2022/09/10 04:37:02;;;;;;;;;;;;;;;27.85;39.53;94243.13;4867067;29;7298;-61
2022/09/10 04:39:28;;;;;;;;;;;;;;;27.85;39.53;94248.66;4873762;29;7813;-60
2022/09/10 04:42:05;;;;;;;;;;;;;;;27.85;39.56;94251.41;4868903;29;9099;-60
2022/09/10 04:44:31;;;;;;;;;;;;;;;27.85;39.73;94250.66;4866944;29;8452;-60
2022/09/10 04:46:59;;;;;;;;;;;;;;;27.84;39.71;94251.94;4846083;29;7066;-60
2022/09/10 04:49:25;;;;;;;;;;;;;;;27.82;39.98;94248.97;4852797;29;9397;-60
2022/09/10 04:51:54;;;;;;;;;;;;;;;27.82;39.37;94251.75;4867102;29;7420;-60
2022/09/10 04:54:21;;;;;;;;;;;;;;;27.82;39.94;94255.22;4849185;29;7127;-60
2022/09/10 04:56:51;;;;;;;;;;;;;;;27.82;39.87;94255.22;4870275;29;7022;-60
2022/09/10 04:59:20;;;;;;;;;;;;;;;27.83;39.50;94258.75;4870133;29;7209;-60
2022/09/10 05:01:56;;;;;;;;;;;;;;;27.82;39.56;94248.97;4859959;29;7205;-60
2022/09/10 05:04:32;;;;;;;;;;;;;;;27.82;39.56;94251.75;4854248;29;6954;-60
2022/09/10 05:06:58;;;;;;;;;;;;;;;27.81;39.80;94253.00;4944794;28;9323;-61
2022/09/10 05:09:29;;;;;;;;;;;;;;;27.82;39.70;94254.50;4949354;28;9907;-60
2022/09/10 05:12:05;;;;;;;;;;;;;;;27.81;39.49;94253.75;5009690;28;7358;-60
2022/09/10 05:14:37;;;;;;;;;;;;;;;27.82;40.07;94262.78;4986325;28;7019;-60
2022/09/10 05:17:04;;;;;;;;;;;;;;;27.83;39.59;94258.75;5007540;28;7048;-60
2022/09/10 05:19:39;;;;;;;;;;;;;;;27.81;38.95;94255.75;5010883;28;7196;-60
2022/09/10 05:22:09;;;;;;;;;;;;;;;27.80;39.41;94259.78;4989986;28;7297;-60
2022/09/10 05:24:42;;;;;;;;;;;;;;;27.81;39.89;94264.06;4992822;28;7298;-60
2022/09/10 05:27:14;;;;;;;;;;;;;;;27.82;39.38;94265.56;4980783;28;7201;-60
2022/09/10 05:29:43;;;;;;;;;;;;;;;27.80;39.63;94263.31;4979689;28;9468;-60
2022/09/10 05:32:12;;;;;;;;;;;;;;;27.80;39.12;94271.59;4991005;28;7302;-59
2022/09/10 05:35:04;;;;;;;;;;;;;;;27.82;39.53;94271.09;4988993;28;8476;-60
2022/09/10 05:37:33;;;;;;;;;;;;;;;27.80;39.32;94274.34;4975774;28;7074;-60
2022/09/10 05:40:04;;;;;;;;;;;;;;;27.81;39.06;94275.88;4992814;28;9176;-60
2022/09/10 05:42:32;;;;;;;;;;;;;;;27.81;39.65;94275.09;4982300;28;9413;-60
2022/09/10 05:44:58;;;;;;;;;;;;;;;27.80;39.64;94276.38;4973471;28;7248;-60
2022/09/10 05:47:24;;;;;;;;;;;;;;;27.79;39.28;94277.66;5008544;28;7208;-60
2022/09/10 05:49:54;;;;;;;;;;;;;;;27.78;39.63;94278.91;4989016;28;6969;-60
2022/09/10 05:52:21;;;;;;;;;;;;;;;27.77;39.75;94282.97;5006199;28;7063;-60
2022/09/10 05:55:04;;;;;;;;;;;;;;;27.77;40.18;94291.25;4992488;28;9506;-60
2022/09/10 05:57:36;;;;;;;;;;;;;;;27.77;39.60;94296.78;4987534;28;7279;-60
2022/09/10 06:00:08;;;;;;;;;;;;;;;27.76;39.20;94284.22;4981000;28;7386;-59
2022/09/10 06:03:03;;;;;;;;;;;;;;;27.76;39.83;94284.22;4992052;28;7365;-60
2022/09/10 06:05:54;;;;;;;;;;;;;;;27.75;39.54;94288.28;4934346;29;7722;-60
2022/09/10 06:08:30;;;;;;;;;;;;;;;27.73;39.77;94293.59;4948150;28;9529;-59
2022/09/10 06:11:08;;;;;;;;;;;;;;;27.73;39.55;94302.59;4930203;29;7212;-60
2022/09/10 06:13:45;;;;;;;;;;;;;;;27.74;39.33;94292.31;4944947;28;6975;-59
2022/09/10 06:16:12;;;;;;;;;;;;;;;27.74;39.22;94301.34;4947383;28;7234;-60
2022/09/10 06:18:43;;;;;;;;;;;;;;;27.72;39.39;94298.38;4948075;29;7241;-59
2022/09/10 06:21:19;;;;;;;;;;;;;;;27.73;39.19;94307.41;4933587;28;7750;-59
2022/09/10 06:23:52;;;;;;;;;;;;;;;27.73;39.31;94302.59;4944750;28;7284;-60
2022/09/10 06:26:20;;;;;;;;;;;;;;;27.74;39.01;94306.88;4930017;29;7334;-60
2022/09/10 06:29:11;;;;;;;;;;;;;;;27.75;39.46;94304.88;4949263;29;7769;-59
2022/09/10 06:31:38;;;;;;;;;;;;;;;27.72;39.56;94297.63;4949489;29;7120;-60
2022/09/10 06:34:34;;;;;;;;;;;;;;;27.73;39.69;94301.88;4949261;29;7092;-59
2022/09/10 06:37:05;;;;;;;;;;;;;;;27.70;39.65;94303.69;4890578;29;7223;-60
2022/09/10 06:39:49;;;;;;;;;;;;;;;27.68;39.68;94299.94;4912207;29;7204;-60
2022/09/10 06:42:15;;;;;;;;;;;;;;;27.69;39.94;94307.69;4908537;29;9725;-59
2022/09/10 06:44:47;;;;;;;;;;;;;;;27.71;39.46;94309.97;4931936;29;7417;-60
2022/09/10 06:47:13;;;;;;;;;;;;;;;27.70;39.29;94311.97;4920540;29;7214;-60
2022/09/10 06:49:39;;;;;;;;;;;;;;;27.70;39.12;94311.22;4918599;28;7009;-59
2022/09/10 06:52:07;;;;;;;;;;;;;;;27.71;39.56;94315.50;4919595;29;9041;-59
2022/09/10 06:54:34;;;;;;;;;;;;;;;27.69;38.96;94323.56;4925872;28;7717;-60
2022/09/10 06:57:00;;;;;;;;;;;;;;;27.68;39.16;94324.81;4936677;28;7418;-60
2022/09/10 06:59:28;;;;;;;;;;;;;;;27.67;38.56;94326.81;4929096;29;7675;-60
2022/09/10 07:01:54;;;;;;;;;;;;;;;27.67;38.17;94326.06;4917012;29;7835;-60
2022/09/10 07:04:29;;;;;;;;;;;;;;;27.66;38.22;94319.81;4934820;28;7121;-60
2022/09/10 07:07:03;;;;;;;;;;;;;;;27.65;38.57;94321.09;4933119;29;7300;-60
2022/09/10 07:09:44;;;;;;;;;;;;;;;27.65;38.83;94326.59;4934428;29;9011;-61
2022/09/10 07:12:10;;;;;;;;;;;;;;;27.67;38.74;94324.06;4950596;28;7064;-60
2022/09/10 07:14:46;;;;;;;;;;;;;;;27.67;38.99;94331.59;4995427;28;7685;-60
2022/09/10 07:17:24;;;;;;;;;;;;;;;27.66;39.19;94328.13;5009287;28;7412;-60
2022/09/10 07:19:51;;;;;;;;;;;;;;;27.64;38.96;94331.38;4990325;28;7384;-60
2022/09/10 07:22:36;;;;;;;;;;;;;;;27.66;39.00;94341.94;4992695;28;7297;-60
2022/09/10 07:25:23;;;;;;;;;;;;;;;27.68;38.79;94341.41;4994750;28;7252;-60
2022/09/10 07:28:11;;;;;;;;;;;;;;;27.69;39.13;94340.13;5013029;28;8287;-60
2022/09/10 07:30:46;;;;;;;;;;;;;;;27.70;39.29;94341.63;4991960;28;7195;-60
2022/09/10 07:33:16;;;;;;;;;;;;;;;27.68;38.88;94344.91;5009058;28;8200;-61
2022/09/10 07:35:45;;;;;;;;;;;;;;;27.69;39.26;94351.91;5011395;28;9441;-60
2022/09/10 07:38:19;;;;;;;;;;;;;;;27.71;38.99;94359.69;4988420;28;9375;-60
2022/09/10 07:40:46;;;;;;;;;;;;;;;27.70;38.87;94360.97;4996648;28;8592;-60
2022/09/10 07:43:18;;;;;;;;;;;;;;;27.71;38.90;94365.94;4992603;28;7076;-60
2022/09/10 07:45:44;;;;;;;;;;;;;;;27.71;39.34;94370.75;4987315;28;7132;-60
2022/09/10 07:48:10;;;;;;;;;;;;;;;27.69;38.82;94373.31;4995272;28;6988;-60
2022/09/10 07:50:41;;;;;;;;;;;;;;;27.71;39.09;94371.47;5007366;28;7312;-60
2022/09/10 07:53:07;;;;;;;;;;;;;;;27.72;39.20;94377.75;4989169;28;6978;-60
2022/09/10 07:55:36;;;;;;;;;;;;;;;27.71;38.94;94377.00;4980260;28;7067;-60
2022/09/10 07:58:09;;;;;;;;;;;;;;;27.70;38.95;94383.81;5001490;28;7212;-59
2022/09/10 08:00:37;;;;;;;;;;;;;;;27.71;39.17;94381.81;4988736;28;6987;-60
2022/09/10 08:03:05;;;;;;;;;;;;;;;27.71;38.73;94376.28;5006179;28;7160;-59
2022/09/10 08:05:31;;;;;;;;;;;;;;;27.71;38.64;94379.03;5000926;28;9459;-60
2022/09/10 08:07:57;;;;;;;;;;;;;;;27.69;38.76;94379.56;4973468;28;8343;-60
2022/09/10 08:10:29;;;;;;;;;;;;;;;27.66;39.06;94377.09;4988082;28;6985;-60
2022/09/10 08:13:02;;;;;;;;;;;;;;;27.63;39.07;94379.66;4988637;28;6965;-61
2022/09/10 08:15:31;;;;;;;;;;;;;;;27.62;39.46;94383.66;4989284;28;7442;-60
2022/09/10 08:18:00;;;;;;;;;;;;;;;27.59;39.64;94381.97;5007804;28;8940;-60
2022/09/10 08:20:25;;;;;;;;;;;;;;;27.55;39.52;94381.53;4990277;28;7424;-60
2022/09/10 08:22:56;;;;;;;;;;;;;;;27.54;39.68;94388.31;5024736;28;7243;-60
2022/09/10 08:25:33;;;;;;;;;;;;;;;27.51;39.52;94396.91;4983889;28;7316;-60
2022/09/10 08:28:00;;;;;;;;;;;;;;;27.51;40.28;94400.41;4988531;28;9081;-60
2022/09/10 08:30:29;;;;;;;;;;;;;;;27.49;39.94;94404.97;5008183;28;6986;-60
2022/09/10 08:32:57;;;;;;;;;;;;;;;27.48;40.38;94406.22;5008329;28;7910;-60
2022/09/10 08:35:27;;;;;;;;;;;;;;;27.45;40.12;94410.78;5007755;28;7377;-60
2022/09/10 08:37:54;;;;;;;;;;;;;;;27.45;40.25;94404.50;4992277;28;7305;-59
2022/09/10 08:40:26;;;;;;;;;;;;;;;27.45;40.07;94396.97;4987210;28;7057;-60
2022/09/10 08:42:55;;;;;;;;;;;;;;;27.46;40.40;94403.25;4982313;28;7504;-60
2022/09/10 08:45:28;;;;;;;;;;;;;;;27.44;40.29;94409.31;4984925;28;8188;-59
2022/09/10 08:47:54;;;;;;;;;;;;;;;27.41;40.51;94404.81;4984319;28;8727;-59
2022/09/10 08:50:42;;;;;;;;;;;;;;;27.45;40.43;94402.50;5001529;28;7590;-59
2022/09/10 08:53:48;;;;;;;;;;;;;;;27.48;40.41;94404.22;4986589;28;7157;-60
2022/09/10 08:56:22;;;;;;;;;;;;;;;27.50;40.53;94407.22;5002880;28;9684;-59
2022/09/10 08:59:01;;;;;;;;;;;;;;;27.50;40.16;94407.22;4982380;28;7103;-60
2022/09/10 09:02:00;;;;;;;;;;;;;;;27.48;40.24;94409.75;4998989;28;7100;-60
2022/09/10 09:05:01;;;;;;;;;;;;;;;27.53;40.34;94422.00;4985357;28;9399;-60
2022/09/10 09:07:43;;;;;;;;;;;;;;;27.55;40.36;94420.22;5008012;28;8240;-60
2022/09/10 09:10:31;;;;;;;;;;;;;;;27.57;40.40;94417.66;5006029;28;7391;-60
2022/09/10 09:13:31;;;;;;;;;;;;;;;27.59;40.26;94419.91;5011342;28;7624;-60
2022/09/10 09:16:14;;;;;;;;;;;;;;;27.58;39.85;94416.38;4991878;28;7006;-60
2022/09/10 09:19:16;;;;;;;;;;;;;;;27.57;40.01;94423.19;5003081;28;8399;-60
2022/09/10 09:21:57;;;;;;;;;;;;;;;27.57;40.44;94411.38;4994403;28;7249;-60
2022/09/10 09:25:01;;;;;;;;;;;;;;;27.58;40.28;94418.38;4989638;28;7284;-60
2022/09/10 09:27:43;;;;;;;;;;;;;;;27.55;40.28;94420.22;4939304;28;8611;-60
2022/09/10 09:30:28;;;;;;;;;;;;;;;27.55;40.25;94411.91;4935899;28;7457;-60
2022/09/10 09:33:02;;;;;;;;;;;;;;;27.57;40.16;94414.91;4948522;28;7242;-61
2022/09/10 09:35:53;;;;;;;;;;;;;;;27.58;40.21;94419.16;4935870;28;7452;-60
2022/09/10 09:38:36;;;;;;;;;;;;;;;27.59;40.80;94408.84;4931129;28;7221;-60
2022/09/10 09:41:20;;;;;;;;;;;;;;;27.57;40.51;94414.91;4931688;28;7077;-59
2022/09/10 09:44:21;;;;;;;;;;;;;;;27.57;40.59;94417.66;4930803;28;9115;-60
2022/09/10 09:46:48;;;;;;;;;;;;;;;27.56;40.63;94413.41;4926448;28;7013;-60
2022/09/10 09:49:15;;;;;;;;;;;;;;;27.58;40.59;94408.09;4929747;29;7254;-60
2022/09/10 09:51:47;;;;;;;;;;;;;;;27.59;40.42;94408.84;4944217;28;7269;-60
2022/09/10 09:54:20;;;;;;;;;;;;;;;27.60;40.46;94411.06;4944044;28;7224;-60
2022/09/10 09:57:00;;;;;;;;;;;;;;;27.63;40.51;94412.06;4938709;28;7194;-60
2022/09/10 09:59:33;;;;;;;;;;;;;;;27.62;40.34;94411.28;4928976;28;7251;-60
2022/09/10 10:02:17;;;;;;;;;;;;;;;27.64;39.99;94406.00;4950289;28;7231;-60
2022/09/10 10:05:21;;;;;;;;;;;;;;;27.63;40.10;94404.50;4999360;28;6993;-60
2022/09/10 10:07:55;;;;;;;;;;;;;;;27.65;40.06;94401.22;4983939;28;7045;-60
2022/09/10 10:10:28;;;;;;;;;;;;;;;27.64;40.04;94400.47;4991270;28;6931;-60
2022/09/10 10:12:58;;;;;;;;;;;;;;;27.64;40.14;94405.28;4986053;28;7867;-60
2022/09/10 10:15:43;;;;;;;;;;;;;;;27.64;40.63;94403.22;4985531;28;8405;-60
2022/09/10 10:18:31;;;;;;;;;;;;;;;27.63;39.96;94399.00;4997056;28;7014;-60
2022/09/10 10:21:22;;;;;;;;;;;;;;;27.66;40.41;94402.72;5010616;28;7171;-60
2022/09/10 10:23:50;;;;;;;;;;;;;;;27.64;40.64;94394.94;4997031;28;7031;-60
2022/09/10 10:26:32;;;;;;;;;;;;;;;27.66;40.20;94388.16;5010851;28;7457;-60
2022/09/10 10:29:15;;;;;;;;;;;;;;;27.66;40.45;94385.41;5013909;28;7189;-61
2022/09/10 10:32:01;;;;;;;;;;;;;;;27.64;40.56;94372.84;4985780;28;7091;-61
2022/09/10 10:35:05;;;;;;;;;;;;;;;27.63;40.58;94376.13;5008920;28;7432;-61
2022/09/10 10:38:15;;;;;;;;;;;;;;;27.62;40.62;94394.72;4990961;28;8633;-60
2022/09/10 10:41:06;;;;;;;;;;;;;;;27.60;40.65;94386.22;4954554;28;7186;-60
2022/09/10 10:47:42;;;;;;;;;;;;;;;27.59;40.61;94376.44;4952386;28;7453;-60
2022/09/10 10:50:13;;;;;;;;;;;;;;;27.61;40.58;94373.91;4939424;28;7539;-60
2022/09/10 10:53:10;;;;;;;;;;;;;;;27.63;40.78;94381.66;4946209;28;7490;-60
2022/09/10 10:55:49;;;;;;;;;;;;;;;27.63;40.60;94371.34;4950950;28;7206;-60
2022/09/10 10:59:12;;;;;;;;;;;;;;;27.63;40.38;94368.59;4949903;28;6992;-60
2022/09/10 11:01:54;;;;;;;;;;;;;;;27.60;40.42;94372.41;4842190;29;7142;-60
2022/09/10 11:05:00;;;;;;;;;;;;;;;27.61;40.54;94371.13;4860634;29;7208;-61
2022/09/10 11:07:46;;;;;;;;;;;;;;;27.61;40.73;94373.16;4844386;29;8287;-61
2022/09/10 11:10:35;;;;;;;;;;;;;;;27.59;40.75;94376.44;4857913;29;7402;-61
2022/09/10 11:13:27;;;;;;;;;;;;;;;27.59;40.57;94384.72;4853631;29;8494;-61
2022/09/10 11:16:08;;;;;;;;;;;;;;;27.59;40.53;94376.44;4858331;29;7224;-61
2022/09/10 11:19:01;;;;;;;;;;;;;;;27.59;40.72;94370.16;4856396;29;7009;-61
2022/09/10 11:21:45;;;;;;;;;;;;;;;27.60;40.86;94364.09;4875861;29;9065;-61
2022/09/10 11:24:40;;;;;;;;;;;;;;;27.62;40.57;94369.84;4897468;29;7227;-61
2022/09/10 11:27:17;;;;;;;;;;;;;;;27.61;40.89;94356.56;4894756;29;10430;-61
2022/09/10 11:30:25;;;;;;;;;;;;;;;27.62;40.78;94350.50;4897216;29;9096;-61
2022/09/10 11:33:15;;;;;;;;;;;;;;;27.63;40.51;94346.50;4893400;29;7692;-61
2022/09/10 11:36:11;;;;;;;;;;;;;;;27.63;40.53;94348.50;4958937;28;7021;-61
2022/09/10 11:38:39;;;;;;;;;;;;;;;27.61;40.72;94357.31;5007926;28;7234;-61
2022/09/10 11:41:30;;;;;;;;;;;;;;;27.63;40.63;94349.25;4992784;28;7542;-61
2022/09/10 11:44:26;;;;;;;;;;;;;;;27.64;40.75;94356.25;4998569;28;7213;-60
2022/09/10 11:47:17;;;;;;;;;;;;;;;27.65;40.47;94348.72;5009857;28;7287;-61
2022/09/10 11:49:48;;;;;;;;;;;;;;;27.66;40.88;94352.22;5008287;28;7230;-61
2022/09/10 11:52:17;;;;;;;;;;;;;;;27.63;41.10;94354.03;4989955;28;7095;-61
2022/09/10 11:55:21;;;;;;;;;;;;;;;27.66;40.90;94349.47;5009085;28;9612;-61
2022/09/10 11:58:12;;;;;;;;;;;;;;;27.68;40.72;94355.22;4946461;28;7342;-60
2022/09/10 12:01:19;;;;;;;;;;;;;;;27.66;40.73;94355.75;4953714;28;9043;-60
2022/09/10 12:04:27;;;;;;;;;;;;;;;27.66;41.13;94355.75;4861046;29;7105;-61
2022/09/10 12:07:38;;;;;;;;;;;;;;;27.68;41.03;94344.16;4860095;29;7305;-61
2022/09/10 12:10:41;;;;;;;;;;;;;;;27.66;41.05;94346.72;4874034;29;7247;-61
2022/09/10 12:13:16;;;;;;;;;;;;;;;27.64;41.13;94356.25;4814929;29;7358;-61
2022/09/10 12:15:58;;;;;;;;;;;;;;;27.62;41.04;94347.75;4806563;29;9142;-61
2022/09/10 12:18:41;;;;;;;;;;;;;;;27.63;41.40;94349.25;4805165;29;7405;-61
2022/09/10 12:21:47;;;;;;;;;;;;;;;27.63;41.21;94349.25;4817738;29;7042;-60
2022/09/10 12:24:31;;;;;;;;;;;;;;;27.64;41.21;94334.16;4782369;30;8707;-60
2022/09/10 12:27:05;;;;;;;;;;;;;;;27.66;41.00;94328.13;4779449;30;7226;-61
2022/09/10 12:29:39;;;;;;;;;;;;;;;27.67;41.22;94334.38;4780906;30;7255;-61
2022/09/10 12:32:08;;;;;;;;;;;;;;;27.68;41.46;94330.34;4809378;29;7138;-60
2022/09/10 12:34:41;;;;;;;;;;;;;;;27.66;41.45;94322.59;4831105;29;7567;-60
2022/09/10 12:37:22;;;;;;;;;;;;;;;27.68;41.43;94317.28;4849151;29;8275;-60
2022/09/10 12:40:24;;;;;;;;;;;;;;;27.72;41.27;94328.00;4849576;29;9357;-61
2022/09/10 12:42:55;;;;;;;;;;;;;;;27.71;41.03;94315.50;4886947;29;6993;-61
2022/09/10 12:46:07;;;;;;;;;;;;;;;27.72;41.26;94314.19;4887851;29;6997;-61
2022/09/10 12:48:36;;;;;;;;;;;;;;;27.73;41.24;94307.41;4895263;29;7812;-61
2022/09/10 12:51:17;;;;;;;;;;;;;;;27.74;41.38;94308.88;4939404;28;7405;-61
2022/09/10 12:54:08;;;;;;;;;;;;;;;27.75;41.55;94313.16;4945682;28;7408;-61
2022/09/10 12:56:56;;;;;;;;;;;;;;;27.78;41.39;94314.84;4943239;28;7418;-61
2022/09/10 12:59:51;;;;;;;;;;;;;;;27.78;41.42;94310.06;4948239;28;7679;-61
2022/09/10 13:02:32;;;;;;;;;;;;;;;27.81;41.22;94311.03;4974770;28;7211;-61
2022/09/10 13:05:35;;;;;;;;;;;;;;;27.82;41.42;94293.91;4972732;28;8612;-60
2022/09/10 13:08:40;;;;;;;;;;;;;;;27.84;41.51;94307.22;4988750;28;7607;-61
2022/09/10 13:11:33;;;;;;;;;;;;;;;27.84;41.56;94304.47;4985190;28;7368;-60
2022/09/10 13:14:04;;;;;;;;;;;;;;;27.84;41.62;94304.47;4978999;28;7198;-61
2022/09/10 13:16:31;;;;;;;;;;;;;;;27.87;41.59;94300.63;4972027;28;7309;-61
2022/09/10 13:19:12;;;;;;;;;;;;;;;27.86;41.69;94304.69;4984032;28;7108;-60
2022/09/10 13:21:43;;;;;;;;;;;;;;;27.88;41.79;94302.88;4985769;28;7232;-60
2022/09/10 13:24:35;;;;;;;;;;;;;;;27.90;41.48;94292.03;4965777;28;7321;-59
2022/09/10 13:27:33;;;;;;;;;;;;;;;27.92;41.44;94299.81;4967807;28;8089;-59
2022/09/10 13:30:19;;;;;;;;;;;;;;;27.91;41.53;94296.28;4954925;28;7384;-59
2022/09/10 13:32:55;;;;;;;;;;;;;;;27.93;41.79;94304.03;4945638;28;6861;-60
2022/09/10 13:35:55;;;;;;;;;;;;;;;27.94;41.92;94291.72;4972259;28;9080;-59
2022/09/10 13:38:59;;;;;;;;;;;;;;;27.98;41.57;94283.88;4967799;28;7265;-59
2022/09/10 13:42:02;;;;;;;;;;;;;;;27.97;41.80;94288.66;4950177;28;8592;-59
2022/09/10 13:44:47;;;;;;;;;;;;;;;27.98;41.73;94287.41;4956993;28;8953;-60
2022/09/10 13:47:26;;;;;;;;;;;;;;;27.99;41.58;94280.59;5009091;28;9179;-60
2022/09/10 13:50:00;;;;;;;;;;;;;;;28.00;41.63;94281.34;4987477;28;8208;-60
2022/09/10 13:52:48;;;;;;;;;;;;;;;28.01;41.96;94283.59;5002952;28;9297;-59
2022/09/10 13:55:20;;;;;;;;;;;;;;;28.04;41.44;94276.22;4988770;28;7791;-60
2022/09/10 13:57:55;;;;;;;;;;;;;;;28.06;41.67;94270.91;5001494;28;7362;-60
2022/09/10 14:00:55;;;;;;;;;;;;;;;28.09;42.02;94267.09;4987061;28;7239;-60
2022/09/10 14:03:46;;;;;;;;;;;;;;;28.07;42.20;94267.63;4954652;28;7719;-60
2022/09/10 14:06:23;;;;;;;;;;;;;;;28.12;41.80;94275.06;4935830;28;7081;-59
2022/09/10 14:08:54;;;;;;;;;;;;;;;28.13;41.95;94270.28;4937203;28;8001;-60
2022/09/10 14:11:29;;;;;;;;;;;;;;;28.16;41.69;94285.84;4951680;28;7003;-60
2022/09/10 14:14:08;;;;;;;;;;;;;;;28.18;41.13;94286.03;4934946;28;9877;-59